Flight Track Log - Related Links

Times and Time Zones

All times are in EDT time to prevent confusion due to time zone crossing. See the UAL5361 flight status page for this flight to view local times or setup timezone preferences in your user account.

Time Position Orientation Groundspeed Altitude Reporting Facility
EDT Latitude Longitude Course Direction KTS MPH feet Rate Location/Type
Mon 08:13:21 AM 41.9333 -87.9000 96° East 180 207 2,200  Level Chicago TRACON
Mon 08:14:21 AM 41.9167 -87.8333 109° East 196 226 3,400 1,114 Climbing Chicago TRACON
Mon 08:15:00 AM 41.9632 -87.5341 95° East  Level FlightAware Approximate
Mon 08:15:41 AM 41.9203 -87.7142 88° East 240 276 4,800  Level Chicago Center
Mon 08:16:00 AM 41.9545 -87.4127 95° East  Level FlightAware Approximate
Mon 08:16:43 AM 41.9419 -87.6269 72° East 247 284 5,700  Level Chicago Center
Mon 08:17:00 AM 41.9455 -87.2913 96° East  Level FlightAware Approximate
Mon 08:17:45 AM 41.9861 -87.5586 49° Northeast 240 276 8,500  Level Chicago Center
Mon 08:18:00 AM 41.9362 -87.1699 96° East  Level FlightAware Approximate
Mon 08:18:47 AM 42.0100 -87.4675 71° East 261 300 11,100  Level Chicago Center
Mon 08:19:49 AM 41.9950 -87.3625 101° East 289 333 13,500 2,244 Climbing Chicago Center
Mon 08:20:50 AM 41.9767 -87.2514 102° East 303 349 15,700 1,707 Climbing Chicago Center
Mon 08:21:52 AM 41.9547 -87.1167 102° East 343 395 17,000 677 Climbing Chicago Center
Mon 08:22:54 AM 41.9128 -87.0072 117° Southeast 326 375 17,100 48 Climbing Chicago Center
Mon 08:23:56 AM 41.8664 -86.8978 120° Southeast 317 365 17,100  Level Chicago Center
Mon 08:24:58 AM 41.8511 -86.7789 100° East 322 371 17,100  Level Chicago Center
Mon 08:26:00 AM 41.8322 -86.6772 104° East 326 375 17,100 290 Level Chicago Center
Mon 08:27:02 AM 41.8147 -86.5331 99° East 328 377 17,700 871 Climbing Chicago Center
Mon 08:28:04 AM 41.8078 -86.4061 94° East 338 389 18,900 629 Climbing Chicago Center
Mon 08:29:06 AM 41.7997 -86.2761 95° East 350 403 19,000 48 Climbing Chicago Center
Mon 08:30:08 AM 41.7914 -86.1494 95° East 345 397 19,000  Level Chicago Center
Mon 08:31:10 AM 41.7819 -86.0225 96° East 343 395 19,000 -194 Level Chicago Center
Mon 08:32:12 AM 41.7736 -85.8936 95° East 346 398 18,600 -1,065 Descending Chicago Center
Mon 08:33:14 AM 41.7631 -85.7436 95° East 340 391 16,800 -1,742 Descending Chicago Center
Mon 08:34:16 AM 41.7453 -85.6272 102° East 328 377 15,000 -1,645 Descending Chicago Center
Mon 08:35:18 AM 41.6708 -85.5750 152° Southeast 307 353 13,400 -1,403 Descending Chicago Center
Mon 08:36:20 AM 41.5989 -85.5339 157° South 290 334 12,100 -1,161 Descending Chicago Center
Mon 08:37:22 AM 41.5144 -85.4864 157° South 284 327 11,000 -532 Descending Chicago Center
Mon 08:38:24 AM 41.4447 -85.4464 157° South 277 319 11,000 -387 Level Chicago Center
Mon 08:39:26 AM 41.3681 -85.4314 172° South 282 325 10,200 -1,113 Descending Chicago Center
Mon 08:40:28 AM 41.2947 -85.4278 178° South 271 312 8,700 -1,344 Descending Chicago Center
Mon 08:41:31 AM 41.2214 -85.4247 178° South 268 308 7,400 -1,344 Descending Chicago Center
Mon 08:42:33 AM 41.1481 -85.4219 178° South 266 306 5,900 -1,452 Descending Chicago Center
Mon 08:43:35 AM 41.0678 -85.4106 174° South 253 291 4,400 -1,210 Descending Chicago Center
Mon 08:44:37 AM 41.0125 -85.3739 153° Southeast 233 268 3,400 -726 Descending Chicago Center
Mon 08:45:39 AM 40.9600 -85.3333 150° Southeast 225 259 2,900 -581 Descending Chicago Center
Mon 08:46:41 AM 40.9242 -85.2883 136° Southeast 196 226 2,200 -581 Descending Chicago Center
Mon 08:47:43 AM 40.9411 -85.2369 66° East 171 197 1,700 -484 Descending Chicago Center

Login

Don't have an account? Register now (free) for customized features, flight alerts, and more!